sensor_id;sensor_type;location;lat;lon;timestamp;P1;durP1;ratioP1;P2;durP2;ratioP2
66521;SDS011;53349;53.538;8.584;2023-02-28T00:00:16;7.28;;;2.35;;
66521;SDS011;53349;53.538;8.584;2023-02-28T00:02:44;6.17;;;2.40;;
66521;SDS011;53349;53.538;8.584;2023-02-28T00:05:12;6.30;;;2.35;;
66521;SDS011;53349;53.538;8.584;2023-02-28T00:07:39;9.18;;;2.58;;
66521;SDS011;53349;53.538;8.584;2023-02-28T00:10:06;4.97;;;2.53;;
66521;SDS011;53349;53.538;8.584;2023-02-28T00:12:34;7.68;;;2.60;;
66521;SDS011;53349;53.538;8.584;2023-02-28T00:15:01;5.30;;;2.40;;
66521;SDS011;53349;53.538;8.584;2023-02-28T00:17:28;6.18;;;2.65;;
66521;SDS011;53349;53.538;8.584;2023-02-28T00:19:53;6.00;;;2.67;;
66521;SDS011;53349;53.538;8.584;2023-02-28T00:22:19;6.83;;;2.53;;
66521;SDS011;53349;53.538;8.584;2023-02-28T00:24:49;6.15;;;2.53;;
66521;SDS011;53349;53.538;8.584;2023-02-28T00:27:14;9.30;;;2.80;;
66521;SDS011;53349;53.538;8.584;2023-02-28T00:29:48;8.10;;;3.00;;
66521;SDS011;53349;53.538;8.584;2023-02-28T00:32:13;7.35;;;2.40;;
66521;SDS011;53349;53.538;8.584;2023-02-28T00:34:39;6.77;;;2.67;;
66521;SDS011;53349;53.538;8.584;2023-02-28T00:37:08;7.65;;;2.63;;
66521;SDS011;53349;53.538;8.584;2023-02-28T00:39:39;5.67;;;2.33;;
66521;SDS011;53349;53.538;8.584;2023-02-28T00:42:08;5.20;;;2.40;;
66521;SDS011;53349;53.538;8.584;2023-02-28T00:44:35;9.25;;;2.83;;
66521;SDS011;53349;53.538;8.584;2023-02-28T00:47:00;5.67;;;2.50;;
66521;SDS011;53349;53.538;8.584;2023-02-28T00:49:30;6.17;;;2.30;;
66521;SDS011;53349;53.538;8.584;2023-02-28T00:51:55;6.07;;;2.15;;
66521;SDS011;53349;53.538;8.584;2023-02-28T00:54:23;8.00;;;2.03;;
66521;SDS011;53349;53.538;8.584;2023-02-28T00:56:54;7.88;;;2.35;;
66521;SDS011;53349;53.538;8.584;2023-02-28T00:59:20;11.75;;;2.70;;
66521;SDS011;53349;53.538;8.584;2023-02-28T01:01:45;8.00;;;2.17;;
66521;SDS011;53349;53.538;8.584;2023-02-28T01:04:12;9.68;;;2.47;;
66521;SDS011;53349;53.538;8.584;2023-02-28T01:06:38;5.17;;;1.93;;
66521;SDS011;53349;53.538;8.584;2023-02-28T01:09:04;7.68;;;2.30;;
66521;SDS011;53349;53.538;8.584;2023-02-28T01:11:31;8.55;;;2.20;;
66521;SDS011;53349;53.538;8.584;2023-02-28T01:13:56;6.13;;;2.27;;
66521;SDS011;53349;53.538;8.584;2023-02-28T01:16:25;6.03;;;2.33;;
66521;SDS011;53349;53.538;8.584;2023-02-28T01:18:51;6.40;;;2.25;;
66521;SDS011;53349;53.538;8.584;2023-02-28T01:21:18;5.78;;;2.30;;
66521;SDS011;53349;53.538;8.584;2023-02-28T01:23:47;8.03;;;2.30;;
66521;SDS011;53349;53.538;8.584;2023-02-28T01:26:15;6.60;;;2.10;;
66521;SDS011;53349;53.538;8.584;2023-02-28T01:28:42;5.13;;;2.15;;
66521;SDS011;53349;53.538;8.584;2023-02-28T01:31:08;4.33;;;1.80;;
66521;SDS011;53349;53.538;8.584;2023-02-28T01:33:34;6.30;;;2.10;;
66521;SDS011;53349;53.538;8.584;2023-02-28T01:36:00;5.32;;;1.95;;
66521;SDS011;53349;53.538;8.584;2023-02-28T01:38:38;6.50;;;2.30;;
66521;SDS011;53349;53.538;8.584;2023-02-28T01:41:05;6.53;;;2.53;;
66521;SDS011;53349;53.538;8.584;2023-02-28T01:43:51;8.00;;;2.85;;
66521;SDS011;53349;53.538;8.584;2023-02-28T01:46:24;6.10;;;2.45;;
66521;SDS011;53349;53.538;8.584;2023-02-28T01:48:58;7.20;;;2.17;;
66521;SDS011;53349;53.538;8.584;2023-02-28T01:51:41;7.78;;;2.50;;
66521;SDS011;53349;53.538;8.584;2023-02-28T01:54:10;7.30;;;2.15;;
66521;SDS011;53349;53.538;8.584;2023-02-28T01:56:42;6.67;;;2.33;;
66521;SDS011;53349;53.538;8.584;2023-02-28T01:59:14;5.85;;;2.30;;
66521;SDS011;53349;53.538;8.584;2023-02-28T02:01:46;6.80;;;2.47;;
66521;SDS011;53349;53.538;8.584;2023-02-28T02:04:13;6.15;;;2.28;;
66521;SDS011;53349;53.538;8.584;2023-02-28T02:06:42;7.80;;;2.57;;
66521;SDS011;53349;53.538;8.584;2023-02-28T02:09:11;8.48;;;2.67;;
66521;SDS011;53349;53.538;8.584;2023-02-28T02:11:39;6.13;;;2.55;;
66521;SDS011;53349;53.538;8.584;2023-02-28T02:16:51;7.40;;;3.13;;
66521;SDS011;53349;53.538;8.584;2023-02-28T02:20:22;8.07;;;2.95;;
66521;SDS011;53349;53.538;8.584;2023-02-28T02:23:07;8.35;;;3.13;;
66521;SDS011;53349;53.538;8.584;2023-02-28T02:35:04;8.98;;;3.97;;
66521;SDS011;53349;53.538;8.584;2023-02-28T02:37:59;9.88;;;4.18;;
66521;SDS011;53349;53.538;8.584;2023-02-28T02:40:32;9.88;;;4.22;;
66521;SDS011;53349;53.538;8.584;2023-02-28T02:43:12;10.93;;;4.07;;
66521;SDS011;53349;53.538;8.584;2023-02-28T02:45:45;12.33;;;5.07;;
66521;SDS011;53349;53.538;8.584;2023-02-28T02:48:16;8.27;;;4.45;;
66521;SDS011;53349;53.538;8.584;2023-02-28T02:50:45;10.25;;;4.53;;
66521;SDS011;53349;53.538;8.584;2023-02-28T02:53:16;9.98;;;4.57;;
66521;SDS011;53349;53.538;8.584;2023-02-28T02:55:46;10.25;;;4.65;;
66521;SDS011;53349;53.538;8.584;2023-02-28T02:58:14;10.07;;;4.63;;
66521;SDS011;53349;53.538;8.584;2023-02-28T03:00:46;10.35;;;4.68;;
66521;SDS011;53349;53.538;8.584;2023-02-28T03:03:17;12.05;;;4.53;;
66521;SDS011;53349;53.538;8.584;2023-02-28T03:05:47;9.48;;;4.85;;
66521;SDS011;53349;53.538;8.584;2023-02-28T03:08:14;9.55;;;4.22;;
66521;SDS011;53349;53.538;8.584;2023-02-28T03:10:41;9.77;;;4.40;;
66521;SDS011;53349;53.538;8.584;2023-02-28T03:21:14;9.40;;;4.17;;
66521;SDS011;53349;53.538;8.584;2023-02-28T03:24:11;11.73;;;4.63;;
66521;SDS011;53349;53.538;8.584;2023-02-28T03:26:58;8.25;;;4.50;;
66521;SDS011;53349;53.538;8.584;2023-02-28T03:29:38;10.77;;;5.20;;
66521;SDS011;53349;53.538;8.584;2023-02-28T03:32:21;11.40;;;5.07;;
66521;SDS011;53349;53.538;8.584;2023-02-28T03:34:59;13.33;;;6.07;;
66521;SDS011;53349;53.538;8.584;2023-02-28T03:37:37;13.77;;;5.90;;
66521;SDS011;53349;53.538;8.584;2023-02-28T03:40:06;13.63;;;6.28;;
66521;SDS011;53349;53.538;8.584;2023-02-28T03:42:36;12.93;;;5.95;;
66521;SDS011;53349;53.538;8.584;2023-02-28T03:45:12;13.38;;;6.20;;
66521;SDS011;53349;53.538;8.584;2023-02-28T03:48:02;15.00;;;6.47;;
66521;SDS011;53349;53.538;8.584;2023-02-28T03:50:37;13.13;;;6.45;;
66521;SDS011;53349;53.538;8.584;2023-02-28T03:56:07;12.60;;;5.65;;
66521;SDS011;53349;53.538;8.584;2023-02-28T04:01:40;10.50;;;5.27;;
66521;SDS011;53349;53.538;8.584;2023-02-28T04:04:11;13.43;;;5.03;;
66521;SDS011;53349;53.538;8.584;2023-02-28T04:06:42;10.02;;;4.40;;
66521;SDS011;53349;53.538;8.584;2023-02-28T04:09:12;9.60;;;4.40;;
66521;SDS011;53349;53.538;8.584;2023-02-28T04:14:05;8.90;;;4.13;;
66521;SDS011;53349;53.538;8.584;2023-02-28T04:16:32;8.43;;;4.40;;
66521;SDS011;53349;53.538;8.584;2023-02-28T04:18:59;11.20;;;4.63;;
66521;SDS011;53349;53.538;8.584;2023-02-28T04:21:25;10.23;;;4.43;;
66521;SDS011;53349;53.538;8.584;2023-02-28T04:23:51;12.00;;;4.40;;
66521;SDS011;53349;53.538;8.584;2023-02-28T04:26:16;12.43;;;4.63;;
66521;SDS011;53349;53.538;8.584;2023-02-28T04:28:41;11.47;;;4.30;;
66521;SDS011;53349;53.538;8.584;2023-02-28T04:31:08;9.50;;;4.57;;
66521;SDS011;53349;53.538;8.584;2023-02-28T04:33:34;9.77;;;4.18;;
66521;SDS011;53349;53.538;8.584;2023-02-28T04:36:04;8.83;;;4.30;;
66521;SDS011;53349;53.538;8.584;2023-02-28T04:38:35;9.43;;;3.90;;
66521;SDS011;53349;53.538;8.584;2023-02-28T04:41:02;10.52;;;4.28;;
66521;SDS011;53349;53.538;8.584;2023-02-28T04:43:29;9.18;;;3.88;;
66521;SDS011;53349;53.538;8.584;2023-02-28T04:45:56;10.70;;;4.30;;
66521;SDS011;53349;53.538;8.584;2023-02-28T04:48:25;11.68;;;4.05;;
66521;SDS011;53349;53.538;8.584;2023-02-28T04:50:52;10.40;;;4.43;;
66521;SDS011;53349;53.538;8.584;2023-02-28T04:53:18;10.98;;;4.45;;
66521;SDS011;53349;53.538;8.584;2023-02-28T04:55:43;10.38;;;4.32;;
66521;SDS011;53349;53.538;8.584;2023-02-28T04:58:09;9.17;;;4.23;;
66521;SDS011;53349;53.538;8.584;2023-02-28T05:00:38;10.40;;;4.13;;
66521;SDS011;53349;53.538;8.584;2023-02-28T05:03:03;10.55;;;4.50;;
66521;SDS011;53349;53.538;8.584;2023-02-28T05:05:30;11.10;;;4.35;;
66521;SDS011;53349;53.538;8.584;2023-02-28T05:07:55;12.10;;;4.83;;
66521;SDS011;53349;53.538;8.584;2023-02-28T05:10:21;9.20;;;4.40;;
66521;SDS011;53349;53.538;8.584;2023-02-28T05:12:47;9.65;;;4.10;;
66521;SDS011;53349;53.538;8.584;2023-02-28T05:15:14;8.55;;;4.70;;
66521;SDS011;53349;53.538;8.584;2023-02-28T05:17:42;10.27;;;4.77;;
66521;SDS011;53349;53.538;8.584;2023-02-28T05:20:09;9.35;;;4.40;;
66521;SDS011;53349;53.538;8.584;2023-02-28T05:22:36;11.38;;;4.80;;
66521;SDS011;53349;53.538;8.584;2023-02-28T05:25:05;11.27;;;5.05;;
66521;SDS011;53349;53.538;8.584;2023-02-28T05:27:31;9.40;;;4.40;;
66521;SDS011;53349;53.538;8.584;2023-02-28T05:29:56;13.23;;;5.30;;
66521;SDS011;53349;53.538;8.584;2023-02-28T05:32:23;9.17;;;4.33;;
66521;SDS011;53349;53.538;8.584;2023-02-28T05:34:48;9.50;;;4.43;;
66521;SDS011;53349;53.538;8.584;2023-02-28T05:37:14;9.93;;;4.57;;
66521;SDS011;53349;53.538;8.584;2023-02-28T05:39:41;9.75;;;4.65;;
66521;SDS011;53349;53.538;8.584;2023-02-28T05:42:10;9.50;;;4.70;;
66521;SDS011;53349;53.538;8.584;2023-02-28T05:44:35;10.35;;;4.43;;
66521;SDS011;53349;53.538;8.584;2023-02-28T05:47:01;12.20;;;4.73;;
66521;SDS011;53349;53.538;8.584;2023-02-28T05:49:26;9.27;;;4.40;;
66521;SDS011;53349;53.538;8.584;2023-02-28T05:51:53;9.57;;;4.77;;
66521;SDS011;53349;53.538;8.584;2023-02-28T05:54:18;13.02;;;5.57;;
66521;SDS011;53349;53.538;8.584;2023-02-28T05:56:46;10.57;;;5.00;;
66521;SDS011;53349;53.538;8.584;2023-02-28T05:59:11;11.82;;;5.10;;
66521;SDS011;53349;53.538;8.584;2023-02-28T06:01:43;10.27;;;5.40;;
66521;SDS011;53349;53.538;8.584;2023-02-28T06:04:10;9.45;;;4.53;;
66521;SDS011;53349;53.538;8.584;2023-02-28T06:06:35;12.63;;;5.17;;
66521;SDS011;53349;53.538;8.584;2023-02-28T06:09:01;12.17;;;4.87;;
66521;SDS011;53349;53.538;8.584;2023-02-28T06:11:27;12.05;;;5.53;;
66521;SDS011;53349;53.538;8.584;2023-02-28T06:13:53;13.17;;;5.60;;
66521;SDS011;53349;53.538;8.584;2023-02-28T06:16:19;16.17;;;6.25;;
66521;SDS011;53349;53.538;8.584;2023-02-28T06:18:46;19.98;;;6.97;;
66521;SDS011;53349;53.538;8.584;2023-02-28T06:21:12;14.30;;;6.30;;
66521;SDS011;53349;53.538;8.584;2023-02-28T06:23:37;12.80;;;5.20;;
66521;SDS011;53349;53.538;8.584;2023-02-28T06:26:03;10.98;;;5.28;;
66521;SDS011;53349;53.538;8.584;2023-02-28T06:28:29;14.13;;;5.47;;
66521;SDS011;53349;53.538;8.584;2023-02-28T06:30:54;10.70;;;4.78;;
66521;SDS011;53349;53.538;8.584;2023-02-28T06:33:20;11.47;;;5.70;;
66521;SDS011;53349;53.538;8.584;2023-02-28T06:35:51;11.80;;;5.33;;
66521;SDS011;53349;53.538;8.584;2023-02-28T06:38:17;11.43;;;5.55;;
66521;SDS011;53349;53.538;8.584;2023-02-28T06:40:43;13.68;;;5.80;;
66521;SDS011;53349;53.538;8.584;2023-02-28T06:43:10;10.00;;;5.30;;
66521;SDS011;53349;53.538;8.584;2023-02-28T06:45:40;9.07;;;5.22;;
66521;SDS011;53349;53.538;8.584;2023-02-28T06:48:06;16.15;;;5.15;;
66521;SDS011;53349;53.538;8.584;2023-02-28T06:50:32;10.13;;;5.20;;
66521;SDS011;53349;53.538;8.584;2023-02-28T06:52:57;11.70;;;5.47;;
66521;SDS011;53349;53.538;8.584;2023-02-28T06:55:22;14.37;;;5.53;;
66521;SDS011;53349;53.538;8.584;2023-02-28T06:57:49;10.50;;;5.15;;
66521;SDS011;53349;53.538;8.584;2023-02-28T07:00:15;11.63;;;5.32;;
66521;SDS011;53349;53.538;8.584;2023-02-28T07:02:41;11.20;;;4.77;;
66521;SDS011;53349;53.538;8.584;2023-02-28T07:05:06;11.38;;;5.03;;
66521;SDS011;53349;53.538;8.584;2023-02-28T07:07:36;14.65;;;5.63;;
66521;SDS011;53349;53.538;8.584;2023-02-28T07:10:03;10.60;;;5.23;;
66521;SDS011;53349;53.538;8.584;2023-02-28T07:12:29;10.13;;;4.88;;
66521;SDS011;53349;53.538;8.584;2023-02-28T07:14:55;13.07;;;5.47;;
66521;SDS011;53349;53.538;8.584;2023-02-28T07:17:22;12.68;;;5.22;;
66521;SDS011;53349;53.538;8.584;2023-02-28T07:19:48;15.00;;;5.45;;
66521;SDS011;53349;53.538;8.584;2023-02-28T07:22:14;13.70;;;5.57;;
66521;SDS011;53349;53.538;8.584;2023-02-28T07:24:42;12.75;;;5.50;;
66521;SDS011;53349;53.538;8.584;2023-02-28T07:27:07;15.80;;;6.47;;
66521;SDS011;53349;53.538;8.584;2023-02-28T07:29:35;14.45;;;6.38;;
66521;SDS011;53349;53.538;8.584;2023-02-28T07:32:09;15.35;;;6.55;;
66521;SDS011;53349;53.538;8.584;2023-02-28T07:34:34;15.83;;;6.73;;
66521;SDS011;53349;53.538;8.584;2023-02-28T07:37:00;16.08;;;7.63;;
66521;SDS011;53349;53.538;8.584;2023-02-28T07:39:28;16.40;;;6.75;;
66521;SDS011;53349;53.538;8.584;2023-02-28T07:41:54;18.20;;;6.33;;
66521;SDS011;53349;53.538;8.584;2023-02-28T07:44:21;14.10;;;6.85;;
66521;SDS011;53349;53.538;8.584;2023-02-28T07:46:46;15.70;;;6.53;;
66521;SDS011;53349;53.538;8.584;2023-02-28T07:49:12;13.27;;;6.40;;
66521;SDS011;53349;53.538;8.584;2023-02-28T07:51:37;14.33;;;6.37;;
66521;SDS011;53349;53.538;8.584;2023-02-28T07:54:02;12.73;;;6.20;;
66521;SDS011;53349;53.538;8.584;2023-02-28T07:56:31;13.50;;;6.72;;
66521;SDS011;53349;53.538;8.584;2023-02-28T07:58:56;12.07;;;6.27;;
66521;SDS011;53349;53.538;8.584;2023-02-28T08:01:22;11.82;;;6.07;;
66521;SDS011;53349;53.538;8.584;2023-02-28T08:03:49;10.83;;;5.33;;
66521;SDS011;53349;53.538;8.584;2023-02-28T08:06:15;9.73;;;5.40;;
66521;SDS011;53349;53.538;8.584;2023-02-28T08:08:43;10.27;;;5.10;;
66521;SDS011;53349;53.538;8.584;2023-02-28T08:11:09;11.80;;;5.80;;
66521;SDS011;53349;53.538;8.584;2023-02-28T08:13:34;11.83;;;5.73;;
66521;SDS011;53349;53.538;8.584;2023-02-28T08:16:00;13.53;;;5.80;;
66521;SDS011;53349;53.538;8.584;2023-02-28T08:18:28;12.65;;;5.70;;
66521;SDS011;53349;53.538;8.584;2023-02-28T08:20:55;10.77;;;5.10;;
66521;SDS011;53349;53.538;8.584;2023-02-28T08:23:20;10.32;;;5.35;;
66521;SDS011;53349;53.538;8.584;2023-02-28T08:25:52;9.97;;;5.10;;
66521;SDS011;53349;53.538;8.584;2023-02-28T08:28:21;8.48;;;4.80;;
66521;SDS011;53349;53.538;8.584;2023-02-28T08:30:47;11.33;;;5.00;;
66521;SDS011;53349;53.538;8.584;2023-02-28T08:33:12;10.85;;;5.57;;
66521;SDS011;53349;53.538;8.584;2023-02-28T08:35:37;12.43;;;5.90;;
66521;SDS011;53349;53.538;8.584;2023-02-28T08:38:04;10.97;;;5.70;;
66521;SDS011;53349;53.538;8.584;2023-02-28T08:40:30;11.30;;;5.70;;
66521;SDS011;53349;53.538;8.584;2023-02-28T08:42:56;10.90;;;5.85;;
66521;SDS011;53349;53.538;8.584;2023-02-28T08:45:23;11.33;;;5.53;;
66521;SDS011;53349;53.538;8.584;2023-02-28T08:47:49;11.23;;;5.32;;
66521;SDS011;53349;53.538;8.584;2023-02-28T08:50:14;10.33;;;5.70;;
66521;SDS011;53349;53.538;8.584;2023-02-28T08:52:45;11.30;;;5.90;;
66521;SDS011;53349;53.538;8.584;2023-02-28T08:55:13;10.30;;;5.50;;
66521;SDS011;53349;53.538;8.584;2023-02-28T08:57:38;13.68;;;6.20;;
66521;SDS011;53349;53.538;8.584;2023-02-28T09:00:04;9.73;;;5.80;;
66521;SDS011;53349;53.538;8.584;2023-02-28T09:02:30;11.30;;;5.70;;
66521;SDS011;53349;53.538;8.584;2023-02-28T09:04:56;11.40;;;5.78;;
66521;SDS011;53349;53.538;8.584;2023-02-28T09:07:21;9.77;;;5.47;;
66521;SDS011;53349;53.538;8.584;2023-02-28T09:09:47;10.10;;;5.50;;
66521;SDS011;53349;53.538;8.584;2023-02-28T09:12:12;9.63;;;5.50;;
66521;SDS011;53349;53.538;8.584;2023-02-28T09:14:37;11.33;;;5.50;;
66521;SDS011;53349;53.538;8.584;2023-02-28T09:17:02;10.70;;;5.70;;
66521;SDS011;53349;53.538;8.584;2023-02-28T09:19:28;8.70;;;5.70;;
66521;SDS011;53349;53.538;8.584;2023-02-28T09:21:53;9.73;;;5.38;;
66521;SDS011;53349;53.538;8.584;2023-02-28T09:24:19;9.60;;;5.87;;
66521;SDS011;53349;53.538;8.584;2023-02-28T09:26:45;11.90;;;5.63;;
66521;SDS011;53349;53.538;8.584;2023-02-28T09:29:10;9.80;;;6.10;;
66521;SDS011;53349;53.538;8.584;2023-02-28T09:31:36;9.13;;;5.90;;
66521;SDS011;53349;53.538;8.584;2023-02-28T09:34:03;9.68;;;5.95;;
66521;SDS011;53349;53.538;8.584;2023-02-28T09:36:30;12.63;;;5.90;;
66521;SDS011;53349;53.538;8.584;2023-02-28T09:38:56;10.55;;;5.60;;
66521;SDS011;53349;53.538;8.584;2023-02-28T09:41:23;10.23;;;5.60;;
66521;SDS011;53349;53.538;8.584;2023-02-28T09:43:52;10.77;;;5.65;;
66521;SDS011;53349;53.538;8.584;2023-02-28T09:49:08;8.27;;;5.20;;
66521;SDS011;53349;53.538;8.584;2023-02-28T09:54:14;8.88;;;5.13;;
66521;SDS011;53349;53.538;8.584;2023-02-28T09:57:07;10.23;;;5.38;;
66521;SDS011;53349;53.538;8.584;2023-02-28T09:59:54;9.32;;;5.57;;
66521;SDS011;53349;53.538;8.584;2023-02-28T10:02:46;9.03;;;5.70;;
66521;SDS011;53349;53.538;8.584;2023-02-28T10:05:18;8.57;;;5.57;;
66521;SDS011;53349;53.538;8.584;2023-02-28T10:08:16;10.27;;;5.43;;
66521;SDS011;53349;53.538;8.584;2023-02-28T10:10:46;10.30;;;5.80;;
66521;SDS011;53349;53.538;8.584;2023-02-28T10:15:59;14.93;;;5.73;;
66521;SDS011;53349;53.538;8.584;2023-02-28T10:18:33;12.50;;;5.63;;
66521;SDS011;53349;53.538;8.584;2023-02-28T10:21:05;9.40;;;5.65;;
66521;SDS011;53349;53.538;8.584;2023-02-28T10:23:38;8.60;;;5.85;;
66521;SDS011;53349;53.538;8.584;2023-02-28T10:26:11;9.20;;;5.85;;
66521;SDS011;53349;53.538;8.584;2023-02-28T10:28:38;9.57;;;5.73;;
66521;SDS011;53349;53.538;8.584;2023-02-28T10:31:04;9.75;;;5.50;;
66521;SDS011;53349;53.538;8.584;2023-02-28T10:33:31;8.13;;;5.60;;
66521;SDS011;53349;53.538;8.584;2023-02-28T10:35:59;10.73;;;5.47;;
66521;SDS011;53349;53.538;8.584;2023-02-28T10:38:26;8.43;;;5.50;;
66521;SDS011;53349;53.538;8.584;2023-02-28T10:43:52;9.05;;;5.43;;
66521;SDS011;53349;53.538;8.584;2023-02-28T10:46:37;9.63;;;5.63;;
66521;SDS011;53349;53.538;8.584;2023-02-28T10:49:06;9.55;;;5.10;;
66521;SDS011;53349;53.538;8.584;2023-02-28T10:51:38;9.13;;;5.40;;
66521;SDS011;53349;53.538;8.584;2023-02-28T10:54:29;8.35;;;5.32;;
66521;SDS011;53349;53.538;8.584;2023-02-28T10:57:05;8.43;;;5.00;;
66521;SDS011;53349;53.538;8.584;2023-02-28T10:59:52;7.65;;;4.68;;
66521;SDS011;53349;53.538;8.584;2023-02-28T11:02:47;7.75;;;5.20;;
66521;SDS011;53349;53.538;8.584;2023-02-28T11:05:24;7.80;;;4.83;;
66521;SDS011;53349;53.538;8.584;2023-02-28T11:08:10;6.53;;;4.10;;
66521;SDS011;53349;53.538;8.584;2023-02-28T11:10:47;8.50;;;3.65;;
66521;SDS011;53349;53.538;8.584;2023-02-28T11:13:32;7.00;;;3.50;;
66521;SDS011;53349;53.538;8.584;2023-02-28T11:16:00;6.65;;;3.30;;
66521;SDS011;53349;53.538;8.584;2023-02-28T11:21:18;7.90;;;3.45;;
66521;SDS011;53349;53.538;8.584;2023-02-28T11:23:49;6.35;;;3.20;;
66521;SDS011;53349;53.538;8.584;2023-02-28T11:26:34;5.10;;;3.00;;
66521;SDS011;53349;53.538;8.584;2023-02-28T11:29:18;12.82;;;8.23;;
66521;SDS011;53349;53.538;8.584;2023-02-28T11:31:43;8.57;;;4.20;;
66521;SDS011;53349;53.538;8.584;2023-02-28T11:34:32;6.03;;;3.15;;
66521;SDS011;53349;53.538;8.584;2023-02-28T11:36:58;7.22;;;3.40;;
66521;SDS011;53349;53.538;8.584;2023-02-28T11:39:25;8.00;;;3.30;;
66521;SDS011;53349;53.538;8.584;2023-02-28T11:47:37;6.60;;;3.05;;
66521;SDS011;53349;53.538;8.584;2023-02-28T11:56:08;6.55;;;3.30;;
66521;SDS011;53349;53.538;8.584;2023-02-28T11:58:56;4.83;;;3.20;;
66521;SDS011;53349;53.538;8.584;2023-02-28T12:04:13;8.30;;;3.20;;
66521;SDS011;53349;53.538;8.584;2023-02-28T12:10:05;6.47;;;3.15;;
66521;SDS011;53349;53.538;8.584;2023-02-28T12:29:04;6.97;;;2.80;;
66521;SDS011;53349;53.538;8.584;2023-02-28T12:31:38;7.47;;;2.65;;
66521;SDS011;53349;53.538;8.584;2023-02-28T12:34:12;7.65;;;2.83;;
66521;SDS011;53349;53.538;8.584;2023-02-28T12:36:41;6.03;;;2.80;;
66521;SDS011;53349;53.538;8.584;2023-02-28T12:39:12;7.87;;;2.90;;
66521;SDS011;53349;53.538;8.584;2023-02-28T12:44:44;6.40;;;2.50;;
66521;SDS011;53349;53.538;8.584;2023-02-28T12:47:13;4.45;;;2.35;;
66521;SDS011;53349;53.538;8.584;2023-02-28T12:49:56;6.90;;;2.60;;
66521;SDS011;53349;53.538;8.584;2023-02-28T12:55:21;6.05;;;2.65;;
66521;SDS011;53349;53.538;8.584;2023-02-28T13:03:51;6.07;;;2.30;;
66521;SDS011;53349;53.538;8.584;2023-02-28T13:09:38;6.00;;;2.22;;
66521;SDS011;53349;53.538;8.584;2023-02-28T13:12:15;5.50;;;2.30;;
66521;SDS011;53349;53.538;8.584;2023-02-28T13:14:50;5.32;;;2.42;;
66521;SDS011;53349;53.538;8.584;2023-02-28T13:17:31;5.03;;;2.25;;
66521;SDS011;53349;53.538;8.584;2023-02-28T13:19:57;5.10;;;2.47;;
66521;SDS011;53349;53.538;8.584;2023-02-28T13:28:11;4.22;;;2.10;;
66521;SDS011;53349;53.538;8.584;2023-02-28T13:33:28;6.20;;;2.30;;
66521;SDS011;53349;53.538;8.584;2023-02-28T13:36:39;4.75;;;2.22;;
66521;SDS011;53349;53.538;8.584;2023-02-28T13:38:52;6.03;;;2.70;;
66521;SDS011;53349;53.538;8.584;2023-02-28T13:44:29;7.88;;;3.60;;
66521;SDS011;53349;53.538;8.584;2023-02-28T13:49:34;4.88;;;2.05;;
66521;SDS011;53349;53.538;8.584;2023-02-28T14:06:08;4.40;;;1.63;;
66521;SDS011;53349;53.538;8.584;2023-02-28T14:08:47;6.60;;;1.60;;
66521;SDS011;53349;53.538;8.584;2023-02-28T14:11:32;3.67;;;1.60;;
66521;SDS011;53349;53.538;8.584;2023-02-28T14:14:00;4.97;;;1.67;;
66521;SDS011;53349;53.538;8.584;2023-02-28T14:16:27;5.10;;;1.85;;
66521;SDS011;53349;53.538;8.584;2023-02-28T14:19:02;5.32;;;2.22;;
66521;SDS011;53349;53.538;8.584;2023-02-28T14:27:39;8.95;;;4.05;;
66521;SDS011;53349;53.538;8.584;2023-02-28T14:36:22;8.48;;;4.22;;
66521;SDS011;53349;53.538;8.584;2023-02-28T14:38:52;7.68;;;3.70;;
66521;SDS011;53349;53.538;8.584;2023-02-28T14:41:40;10.82;;;4.45;;
66521;SDS011;53349;53.538;8.584;2023-02-28T14:44:14;10.43;;;4.80;;
66521;SDS011;53349;53.538;8.584;2023-02-28T14:46:50;12.40;;;4.95;;
66521;SDS011;53349;53.538;8.584;2023-02-28T14:49:29;10.63;;;5.28;;
66521;SDS011;53349;53.538;8.584;2023-02-28T14:52:05;11.10;;;5.30;;
66521;SDS011;53349;53.538;8.584;2023-02-28T14:54:44;10.23;;;5.35;;
66521;SDS011;53349;53.538;8.584;2023-02-28T14:57:24;12.20;;;5.35;;
66521;SDS011;53349;53.538;8.584;2023-02-28T15:02:29;10.48;;;5.43;;
66521;SDS011;53349;53.538;8.584;2023-02-28T15:05:00;10.68;;;5.35;;
66521;SDS011;53349;53.538;8.584;2023-02-28T15:07:48;9.80;;;5.15;;
66521;SDS011;53349;53.538;8.584;2023-02-28T15:10:21;10.85;;;5.70;;
66521;SDS011;53349;53.538;8.584;2023-02-28T15:12:51;13.15;;;5.03;;
66521;SDS011;53349;53.538;8.584;2023-02-28T15:15:22;12.10;;;5.78;;
66521;SDS011;53349;53.538;8.584;2023-02-28T15:17:56;10.45;;;5.28;;
66521;SDS011;53349;53.538;8.584;2023-02-28T15:20:22;9.13;;;5.40;;
66521;SDS011;53349;53.538;8.584;2023-02-28T15:22:50;11.10;;;5.60;;
66521;SDS011;53349;53.538;8.584;2023-02-28T15:25:18;11.63;;;5.78;;
66521;SDS011;53349;53.538;8.584;2023-02-28T15:27:46;10.48;;;5.55;;
66521;SDS011;53349;53.538;8.584;2023-02-28T15:30:28;11.63;;;6.00;;
66521;SDS011;53349;53.538;8.584;2023-02-28T15:35:42;12.70;;;5.78;;
66521;SDS011;53349;53.538;8.584;2023-02-28T15:38:13;13.38;;;5.78;;
66521;SDS011;53349;53.538;8.584;2023-02-28T15:40:45;13.40;;;6.00;;
66521;SDS011;53349;53.538;8.584;2023-02-28T15:43:28;9.65;;;5.57;;
66521;SDS011;53349;53.538;8.584;2023-02-28T15:45:59;12.05;;;6.00;;
66521;SDS011;53349;53.538;8.584;2023-02-28T15:48:36;12.65;;;5.95;;
66521;SDS011;53349;53.538;8.584;2023-02-28T15:51:09;12.27;;;5.57;;
66521;SDS011;53349;53.538;8.584;2023-02-28T15:54:00;9.43;;;5.13;;
66521;SDS011;53349;53.538;8.584;2023-02-28T15:56:47;9.27;;;5.15;;
66521;SDS011;53349;53.538;8.584;2023-02-28T15:59:18;13.48;;;5.90;;
66521;SDS011;53349;53.538;8.584;2023-02-28T16:01:46;12.80;;;6.00;;
66521;SDS011;53349;53.538;8.584;2023-02-28T16:04:19;11.33;;;5.97;;
66521;SDS011;53349;53.538;8.584;2023-02-28T16:09:12;11.27;;;6.20;;
66521;SDS011;53349;53.538;8.584;2023-02-28T16:11:44;11.20;;;5.80;;
66521;SDS011;53349;53.538;8.584;2023-02-28T16:14:14;12.48;;;5.72;;
66521;SDS011;53349;53.538;8.584;2023-02-28T16:16:51;12.20;;;5.93;;
66521;SDS011;53349;53.538;8.584;2023-02-28T16:19:18;11.15;;;5.80;;
66521;SDS011;53349;53.538;8.584;2023-02-28T16:21:44;12.13;;;5.47;;
66521;SDS011;53349;53.538;8.584;2023-02-28T16:24:10;11.45;;;5.30;;
66521;SDS011;53349;53.538;8.584;2023-02-28T16:26:37;9.97;;;5.27;;
66521;SDS011;53349;53.538;8.584;2023-02-28T16:29:05;11.70;;;5.30;;
66521;SDS011;53349;53.538;8.584;2023-02-28T16:31:33;10.70;;;5.28;;
66521;SDS011;53349;53.538;8.584;2023-02-28T16:34:01;11.90;;;5.18;;
66521;SDS011;53349;53.538;8.584;2023-02-28T16:36:27;10.73;;;5.53;;
66521;SDS011;53349;53.538;8.584;2023-02-28T16:38:52;11.07;;;5.77;;
66521;SDS011;53349;53.538;8.584;2023-02-28T16:41:24;11.52;;;5.55;;
66521;SDS011;53349;53.538;8.584;2023-02-28T16:43:53;9.77;;;5.40;;
66521;SDS011;53349;53.538;8.584;2023-02-28T16:46:20;11.55;;;5.28;;
66521;SDS011;53349;53.538;8.584;2023-02-28T16:48:52;10.88;;;5.30;;
66521;SDS011;53349;53.538;8.584;2023-02-28T16:51:17;12.57;;;5.47;;
66521;SDS011;53349;53.538;8.584;2023-02-28T16:53:43;13.40;;;5.33;;
66521;SDS011;53349;53.538;8.584;2023-02-28T16:56:13;11.40;;;5.22;;
66521;SDS011;53349;53.538;8.584;2023-02-28T16:58:41;13.07;;;5.50;;
66521;SDS011;53349;53.538;8.584;2023-02-28T17:01:06;10.90;;;5.20;;
66521;SDS011;53349;53.538;8.584;2023-02-28T17:03:32;10.90;;;5.05;;
66521;SDS011;53349;53.538;8.584;2023-02-28T17:05:57;11.37;;;4.97;;
66521;SDS011;53349;53.538;8.584;2023-02-28T17:08:24;11.30;;;5.37;;
66521;SDS011;53349;53.538;8.584;2023-02-28T17:10:51;10.60;;;5.07;;
66521;SDS011;53349;53.538;8.584;2023-02-28T17:13:16;12.02;;;5.13;;
66521;SDS011;53349;53.538;8.584;2023-02-28T17:15:44;11.97;;;5.30;;
66521;SDS011;53349;53.538;8.584;2023-02-28T17:18:15;15.00;;;5.90;;